METAR Data
IDs: Format: Raw Decoded Include TAF

Data at: 1811 UTC 31 Jul 2021

METAR for:EKRN (Ronne/Bornholm Arpt, HO, DN)
Text:EKRN 311750Z AUTO 21018G31KT 180V240 9999 FEW020/// SCT041/// BKN099/// 18/15 Q1000
Temperature: 18.0°C ( 64°F)
Dewpoint: 15.0°C ( 59°F) [RH = 83%]
Pressure (altimeter):29.53 inches Hg (1000.0 mb)
Winds:from the SSW (210 degrees) at 21 MPH (18 knots; 9.3 m/s) gusting to 36 MPH (31 knots; 15.9 m/s)
Visibility:6 or more sm (10+ km)
Ceiling:9900 feet AGL
Clouds: few clouds at 2000 feet AGL, scattered clouds at 4100 feet AGL, broken clouds at 9900 feet AGL
Text:EKRN 311720Z AUTO 22015KT 190V250 9999 OVC056/// 19/14 Q1001
Temperature: 19.0°C ( 66°F)
Dewpoint: 14.0°C ( 57°F) [RH = 73%]
Pressure (altimeter):29.56 inches Hg (1001.0 mb)
Winds:from the SW (220 degrees) at 17 MPH (15 knots; 7.7 m/s)
Visibility:6 or more sm (10+ km)
Ceiling:5600 feet AGL
Clouds: overcast cloud deck at 5600 feet AGL
Text:EKRN 311650Z AUTO 22016KT 9999 FEW063/// BKN096/// BKN120/// 20/13 Q1001
Temperature: 20.0°C ( 68°F)
Dewpoint: 13.0°C ( 55°F) [RH = 64%]
Pressure (altimeter):29.56 inches Hg (1001.0 mb)
Winds:from the SW (220 degrees) at 18 MPH (16 knots; 8.2 m/s)
Visibility:6 or more sm (10+ km)
Ceiling:9600 feet AGL
Clouds: few clouds at 6300 feet AGL, broken clouds at 9600 feet AGL, broken clouds at 12000 feet AGL
Text:EKRN 311620Z AUTO 22011KT 9999 FEW065/// 20/14 Q1001
Temperature: 20.0°C ( 68°F)
Dewpoint: 14.0°C ( 57°F) [RH = 68%]
Pressure (altimeter):29.56 inches Hg (1001.0 mb)
Winds:from the SW (220 degrees) at 13 MPH (11 knots; 5.7 m/s)
Visibility:6 or more sm (10+ km)
Ceiling:at least 12,000 feet AGL
Clouds: few clouds at 6500 feet AGL
Text:EKRN 311520Z AUTO 22013KT 190V250 9999 SCT082/// 20/13 Q1002
Temperature: 20.0°C ( 68°F)
Dewpoint: 13.0°C ( 55°F) [RH = 64%]
Pressure (altimeter):29.59 inches Hg (1002.0 mb)
Winds:from the SW (220 degrees) at 15 MPH (13 knots; 6.7 m/s)
Visibility:6 or more sm (10+ km)
Ceiling:at least 12,000 feet AGL
Clouds: scattered clouds at 8200 feet AGL
Text:EKRN 311420Z AUTO 23012KT 9999 -RA FEW031/// BKN073/// 20/13 Q1002
Temperature: 20.0°C ( 68°F)
Dewpoint: 13.0°C ( 55°F) [RH = 64%]
Pressure (altimeter):29.59 inches Hg (1002.0 mb)
Winds:from the SW (230 degrees) at 14 MPH (12 knots; 6.2 m/s)
Visibility:6 or more sm (10+ km)
Ceiling:7300 feet AGL
Clouds: few clouds at 3100 feet AGL, broken clouds at 7300 feet AGL
Weather:-RA (light rain)
Text:EKRN 311320Z AUTO 21012KT 9999 FEW042/// SCT060/// BKN071/// 20/14 Q1002
Temperature: 20.0°C ( 68°F)
Dewpoint: 14.0°C ( 57°F) [RH = 68%]
Pressure (altimeter):29.59 inches Hg (1002.0 mb)
Winds:from the SSW (210 degrees) at 14 MPH (12 knots; 6.2 m/s)
Visibility:6 or more sm (10+ km)
Ceiling:7100 feet AGL
Clouds: few clouds at 4200 feet AGL, scattered clouds at 6000 feet AGL, broken clouds at 7100 feet AGL
Text:EKRN 311220Z AUTO 22012KT 190V250 9999 FEW066/// BKN086/// 21/14 Q1002 RERA
Temperature: 21.0°C ( 70°F)
Dewpoint: 14.0°C ( 57°F) [RH = 64%]
Pressure (altimeter):29.59 inches Hg (1002.0 mb)
Winds:from the SW (220 degrees) at 14 MPH (12 knots; 6.2 m/s)
Visibility:6 or more sm (10+ km)
Ceiling:8600 feet AGL
Clouds: few clouds at 6600 feet AGL, broken clouds at 8600 feet AGL
Text:EKRN 311120Z AUTO 21008KT 170V250 9999 BKN028/// BKN066/// 19/14 Q1002
Temperature: 19.0°C ( 66°F)
Dewpoint: 14.0°C ( 57°F) [RH = 73%]
Pressure (altimeter):29.59 inches Hg (1002.0 mb)
Winds:from the SSW (210 degrees) at 9 MPH (8 knots; 4.1 m/s)
Visibility:6 or more sm (10+ km)
Ceiling:2800 feet AGL
Clouds: broken clouds at 2800 feet AGL, broken clouds at 6600 feet AGL
Text:EKRN 311020Z AUTO 25012KT 9999 FEW023/// SCT089/// 20/15 Q1003
Temperature: 20.0°C ( 68°F)
Dewpoint: 15.0°C ( 59°F) [RH = 73%]
Pressure (altimeter):29.62 inches Hg (1003.0 mb)
Winds:from the WSW (250 degrees) at 14 MPH (12 knots; 6.2 m/s)
Visibility:6 or more sm (10+ km)
Ceiling:at least 12,000 feet AGL
Clouds: few clouds at 2300 feet AGL, scattered clouds at 8900 feet AGL
Text:EKRN 310920Z AUTO 26012KT 9999 BKN020/// BKN081/// 20/15 Q1002
Temperature: 20.0°C ( 68°F)
Dewpoint: 15.0°C ( 59°F) [RH = 73%]
Pressure (altimeter):29.59 inches Hg (1002.0 mb)
Winds:from the W (260 degrees) at 14 MPH (12 knots; 6.2 m/s)
Visibility:6 or more sm (10+ km)
Ceiling:2000 feet AGL
Clouds: broken clouds at 2000 feet AGL, broken clouds at 8100 feet AGL
Text:EKRN 310820Z AUTO 23010KT 170V270 9999 BKN020/// 19/15 Q1002
Temperature: 19.0°C ( 66°F)
Dewpoint: 15.0°C ( 59°F) [RH = 78%]
Pressure (altimeter):29.59 inches Hg (1002.0 mb)
Winds:from the SW (230 degrees) at 12 MPH (10 knots; 5.1 m/s)
Visibility:6 or more sm (10+ km)
Ceiling:2000 feet AGL
Clouds: broken clouds at 2000 feet AGL
Text:EKRN 310720Z AUTO 14007KT 9999 FEW043/// BKN074/// 19/16 Q1002
Temperature: 19.0°C ( 66°F)
Dewpoint: 16.0°C ( 61°F) [RH = 83%]
Pressure (altimeter):29.59 inches Hg (1002.0 mb)
Winds:from the SE (140 degrees) at 8 MPH (7 knots; 3.6 m/s)
Visibility:6 or more sm (10+ km)
Ceiling:7400 feet AGL
Clouds: few clouds at 4300 feet AGL, broken clouds at 7400 feet AGL
Text:EKRN 310620Z AUTO 13007KT 9999 BKN055/// BKN077/// 18/16 Q1002
Temperature: 18.0°C ( 64°F)
Dewpoint: 16.0°C ( 61°F) [RH = 88%]
Pressure (altimeter):29.59 inches Hg (1002.0 mb)
Winds:from the SE (130 degrees) at 8 MPH (7 knots; 3.6 m/s)
Visibility:6 or more sm (10+ km)
Ceiling:5500 feet AGL
Clouds: broken clouds at 5500 feet AGL, broken clouds at 7700 feet AGL
Text:EKRN 310520Z AUTO 16008KT 9000 -RA BKN079/// 17/16 Q1003 RESHRA
Temperature: 17.0°C ( 63°F)
Dewpoint: 16.0°C ( 61°F) [RH = 94%]
Pressure (altimeter):29.62 inches Hg (1003.0 mb)
Winds:from the SSE (160 degrees) at 9 MPH (8 knots; 4.1 m/s)
Visibility: 6 sm ( 9 km)
Ceiling:7900 feet AGL
Clouds: broken clouds at 7900 feet AGL
Weather:-RA (light rain)
Text:EKRN 310450Z AUTO 17005KT 5000 RA FEW011/// OVC051/// 17/16 Q1003 RERA
Temperature: 17.0°C ( 63°F)
Dewpoint: 16.0°C ( 61°F) [RH = 94%]
Pressure (altimeter):29.62 inches Hg (1003.0 mb)
Winds:from the S (170 degrees) at 6 MPH (5 knots; 2.6 m/s)
Visibility: 3 sm ( 5 km)
Ceiling:5100 feet AGL
Clouds: few clouds at 1100 feet AGL, overcast cloud deck at 5100 feet AGL
Weather:RA (moderate rain)
Text:EKRN 310420Z AUTO 23008KT 9999 RA OVC054/// 18/15 Q1003
Temperature: 18.0°C ( 64°F)
Dewpoint: 15.0°C ( 59°F) [RH = 83%]
Pressure (altimeter):29.62 inches Hg (1003.0 mb)
Winds:from the SW (230 degrees) at 9 MPH (8 knots; 4.1 m/s)
Visibility:6 or more sm (10+ km)
Ceiling:5400 feet AGL
Clouds: overcast cloud deck at 5400 feet AGL
Weather:RA (moderate rain)
Text:EKRN 310350Z AUTO 24004KT 9999 OVC055/// 19/15 Q1003
Temperature: 19.0°C ( 66°F)
Dewpoint: 15.0°C ( 59°F) [RH = 78%]
Pressure (altimeter):29.62 inches Hg (1003.0 mb)
Winds:from the WSW (240 degrees) at 5 MPH (4 knots; 2.1 m/s)
Visibility:6 or more sm (10+ km)
Ceiling:5500 feet AGL
Clouds: overcast cloud deck at 5500 feet AGL
Text:EKRN 310320Z AUTO 19004KT 9999 BKN058/// OVC085/// 19/15 Q1003
Temperature: 19.0°C ( 66°F)
Dewpoint: 15.0°C ( 59°F) [RH = 78%]
Pressure (altimeter):29.62 inches Hg (1003.0 mb)
Winds:from the S (190 degrees) at 5 MPH (4 knots; 2.1 m/s)
Visibility:6 or more sm (10+ km)
Ceiling:5800 feet AGL
Clouds: broken clouds at 5800 feet AGL, overcast cloud deck at 8500 feet AGL
Text:EKRN 310250Z AUTO 19006KT 160V220 9999 OVC061/// 19/15 Q1003
Temperature: 19.0°C ( 66°F)
Dewpoint: 15.0°C ( 59°F) [RH = 78%]
Pressure (altimeter):29.62 inches Hg (1003.0 mb)
Winds:from the S (190 degrees) at 7 MPH (6 knots; 3.1 m/s)
Visibility:6 or more sm (10+ km)
Ceiling:6100 feet AGL
Clouds: overcast cloud deck at 6100 feet AGL
Text:EKRN 310220Z AUTO 19006KT 9999 FEW059/// BKN074/// BKN200/// 19/16 Q1003
Temperature: 19.0°C ( 66°F)
Dewpoint: 16.0°C ( 61°F) [RH = 83%]
Pressure (altimeter):29.62 inches Hg (1003.0 mb)
Winds:from the S (190 degrees) at 7 MPH (6 knots; 3.1 m/s)
Visibility:6 or more sm (10+ km)
Ceiling:7400 feet AGL
Clouds: few clouds at 5900 feet AGL, broken clouds at 7400 feet AGL, broken clouds at 20000 feet AGL
Text:EKRN 310150Z AUTO 19005KT 9999 FEW076/// BKN200/// 18/16 Q1003
Temperature: 18.0°C ( 64°F)
Dewpoint: 16.0°C ( 61°F) [RH = 88%]
Pressure (altimeter):29.62 inches Hg (1003.0 mb)
Winds:from the S (190 degrees) at 6 MPH (5 knots; 2.6 m/s)
Visibility:6 or more sm (10+ km)
Ceiling:20000 feet AGL
Clouds: few clouds at 7600 feet AGL, broken clouds at 20000 feet AGL
Text:EKRN 310120Z AUTO 23005KT 200V260 9999 SCT076/// 18/14 Q1003
Temperature: 18.0°C ( 64°F)
Dewpoint: 14.0°C ( 57°F) [RH = 77%]
Pressure (altimeter):29.62 inches Hg (1003.0 mb)
Winds:from the SW (230 degrees) at 6 MPH (5 knots; 2.6 m/s)
Visibility:6 or more sm (10+ km)
Ceiling:at least 12,000 feet AGL
Clouds: scattered clouds at 7600 feet AGL
Text:EKRN 310050Z AUTO 24006KT 9999 NCD 18/14 Q1003
Temperature: 18.0°C ( 64°F)
Dewpoint: 14.0°C ( 57°F) [RH = 77%]
Pressure (altimeter):29.62 inches Hg (1003.0 mb)
Winds:from the WSW (240 degrees) at 7 MPH (6 knots; 3.1 m/s)
Visibility:6 or more sm (10+ km)
Ceiling:at least 12,000 feet AGL
Clouds:sky clear below 12,000 feet AGL
Text:EKRN 310020Z AUTO 25006KT 9999 FEW066/// SCT110/// 19/14 Q1004
Temperature: 19.0°C ( 66°F)
Dewpoint: 14.0°C ( 57°F) [RH = 73%]
Pressure (altimeter):29.65 inches Hg (1004.0 mb)
Winds:from the WSW (250 degrees) at 7 MPH (6 knots; 3.1 m/s)
Visibility:6 or more sm (10+ km)
Ceiling:at least 12,000 feet AGL
Clouds: few clouds at 6600 feet AGL, scattered clouds at 11000 feet AGL
Text:EKRN 302350Z AUTO 25007KT 9999 BKN066/// 19/14 Q1004
Temperature: 19.0°C ( 66°F)
Dewpoint: 14.0°C ( 57°F) [RH = 73%]
Pressure (altimeter):29.65 inches Hg (1004.0 mb)
Winds:from the WSW (250 degrees) at 8 MPH (7 knots; 3.6 m/s)
Visibility:6 or more sm (10+ km)
Ceiling:6600 feet AGL
Clouds: broken clouds at 6600 feet AGL
Text:EKRN 302320Z AUTO 26007KT 9999 NCD 19/15 Q1004
Temperature: 19.0°C ( 66°F)
Dewpoint: 15.0°C ( 59°F) [RH = 78%]
Pressure (altimeter):29.65 inches Hg (1004.0 mb)
Winds:from the W (260 degrees) at 8 MPH (7 knots; 3.6 m/s)
Visibility:6 or more sm (10+ km)
Ceiling:at least 12,000 feet AGL
Clouds:sky clear below 12,000 feet AGL
Text:EKRN 302250Z AUTO 26007KT 9999 BKN200/// 19/15 Q1004
Temperature: 19.0°C ( 66°F)
Dewpoint: 15.0°C ( 59°F) [RH = 78%]
Pressure (altimeter):29.65 inches Hg (1004.0 mb)
Winds:from the W (260 degrees) at 8 MPH (7 knots; 3.6 m/s)
Visibility:6 or more sm (10+ km)
Ceiling:20000 feet AGL
Clouds: broken clouds at 20000 feet AGL
Text:EKRN 302220Z AUTO 26008KT 9999 FEW200/// 19/14 Q1004
Temperature: 19.0°C ( 66°F)
Dewpoint: 14.0°C ( 57°F) [RH = 73%]
Pressure (altimeter):29.65 inches Hg (1004.0 mb)
Winds:from the W (260 degrees) at 9 MPH (8 knots; 4.1 m/s)
Visibility:6 or more sm (10+ km)
Ceiling:at least 12,000 feet AGL
Clouds: few clouds at 20000 feet AGL
Text:EKRN 302150Z AUTO 26009KT 9999 NCD 19/14 Q1004
Temperature: 19.0°C ( 66°F)
Dewpoint: 14.0°C ( 57°F) [RH = 73%]
Pressure (altimeter):29.65 inches Hg (1004.0 mb)
Winds:from the W (260 degrees) at 10 MPH (9 knots; 4.6 m/s)
Visibility:6 or more sm (10+ km)
Ceiling:at least 12,000 feet AGL
Clouds:sky clear below 12,000 feet AGL
Text:EKRN 302120Z AUTO 27009KT 9999 NCD 19/15 Q1004
Temperature: 19.0°C ( 66°F)
Dewpoint: 15.0°C ( 59°F) [RH = 78%]
Pressure (altimeter):29.65 inches Hg (1004.0 mb)
Winds:from the W (270 degrees) at 10 MPH (9 knots; 4.6 m/s)
Visibility:6 or more sm (10+ km)
Ceiling:at least 12,000 feet AGL
Clouds:sky clear below 12,000 feet AGL
Text:EKRN 302050Z AUTO 27011KT 9999 NCD 19/14 Q1004
Temperature: 19.0°C ( 66°F)
Dewpoint: 14.0°C ( 57°F) [RH = 73%]
Pressure (altimeter):29.65 inches Hg (1004.0 mb)
Winds:from the W (270 degrees) at 13 MPH (11 knots; 5.7 m/s)
Visibility:6 or more sm (10+ km)
Ceiling:at least 12,000 feet AGL
Clouds:sky clear below 12,000 feet AGL
Text:EKRN 302020Z AUTO 26011KT 9999 FEW240/// 19/14 Q1004
Temperature: 19.0°C ( 66°F)
Dewpoint: 14.0°C ( 57°F) [RH = 73%]
Pressure (altimeter):29.65 inches Hg (1004.0 mb)
Winds:from the W (260 degrees) at 13 MPH (11 knots; 5.7 m/s)
Visibility:6 or more sm (10+ km)
Ceiling:at least 12,000 feet AGL
Clouds: few clouds at 24000 feet AGL
Text:EKRN 301950Z AUTO 25014KT 9999 NCD 19/14 Q1004
Temperature: 19.0°C ( 66°F)
Dewpoint: 14.0°C ( 57°F) [RH = 73%]
Pressure (altimeter):29.65 inches Hg (1004.0 mb)
Winds:from the WSW (250 degrees) at 16 MPH (14 knots; 7.2 m/s)
Visibility:6 or more sm (10+ km)
Ceiling:at least 12,000 feet AGL
Clouds:sky clear below 12,000 feet AGL
Text:EKRN 301920Z AUTO 26014KT 9999 NCD 19/14 Q1004
Temperature: 19.0°C ( 66°F)
Dewpoint: 14.0°C ( 57°F) [RH = 73%]
Pressure (altimeter):29.65 inches Hg (1004.0 mb)
Winds:from the W (260 degrees) at 16 MPH (14 knots; 7.2 m/s)
Visibility:6 or more sm (10+ km)
Ceiling:at least 12,000 feet AGL
Clouds:sky clear below 12,000 feet AGL
Text:EKRN 301850Z AUTO 26016KT 9999 NCD 20/14 Q1004
Temperature: 20.0°C ( 68°F)
Dewpoint: 14.0°C ( 57°F) [RH = 68%]
Pressure (altimeter):29.65 inches Hg (1004.0 mb)
Winds:from the W (260 degrees) at 18 MPH (16 knots; 8.2 m/s)
Visibility:6 or more sm (10+ km)
Ceiling:at least 12,000 feet AGL
Clouds:sky clear below 12,000 feet AGL
Text:EKRN 301820Z AUTO 25018KT 9999 NCD 20/14 Q1004
Temperature: 20.0°C ( 68°F)
Dewpoint: 14.0°C ( 57°F) [RH = 68%]
Pressure (altimeter):29.65 inches Hg (1004.0 mb)
Winds:from the WSW (250 degrees) at 21 MPH (18 knots; 9.3 m/s)
Visibility:6 or more sm (10+ km)
Ceiling:at least 12,000 feet AGL
Clouds:sky clear below 12,000 feet AGL
Text:EKRN 301750Z AUTO 25019KT 9999 NCD 20/14 Q1004
Temperature: 20.0°C ( 68°F)
Dewpoint: 14.0°C ( 57°F) [RH = 68%]
Pressure (altimeter):29.65 inches Hg (1004.0 mb)
Winds:from the WSW (250 degrees) at 22 MPH (19 knots; 9.8 m/s)
Visibility:6 or more sm (10+ km)
Ceiling:at least 12,000 feet AGL
Clouds:sky clear below 12,000 feet AGL
Text:EKRN 301720Z AUTO 25018KT 9999 NCD 20/14 Q1004
Temperature: 20.0°C ( 68°F)
Dewpoint: 14.0°C ( 57°F) [RH = 68%]
Pressure (altimeter):29.65 inches Hg (1004.0 mb)
Winds:from the WSW (250 degrees) at 21 MPH (18 knots; 9.3 m/s)
Visibility:6 or more sm (10+ km)
Ceiling:at least 12,000 feet AGL
Clouds:sky clear below 12,000 feet AGL
Text:EKRN 301650Z AUTO 25020KT 9999 NCD 20/15 Q1004
Temperature: 20.0°C ( 68°F)
Dewpoint: 15.0°C ( 59°F) [RH = 73%]
Pressure (altimeter):29.65 inches Hg (1004.0 mb)
Winds:from the WSW (250 degrees) at 23 MPH (20 knots; 10.3 m/s)
Visibility:6 or more sm (10+ km)
Ceiling:at least 12,000 feet AGL
Clouds:sky clear below 12,000 feet AGL
Text:EKRN 301620Z AUTO 25021KT 9999 NCD 21/14 Q1004
Temperature: 21.0°C ( 70°F)
Dewpoint: 14.0°C ( 57°F) [RH = 64%]
Pressure (altimeter):29.65 inches Hg (1004.0 mb)
Winds:from the WSW (250 degrees) at 24 MPH (21 knots; 10.8 m/s)
Visibility:6 or more sm (10+ km)
Ceiling:at least 12,000 feet AGL
Clouds:sky clear below 12,000 feet AGL
Text:EKRN 301550Z AUTO 25021KT 9999 NCD 21/14 Q1004
Temperature: 21.0°C ( 70°F)
Dewpoint: 14.0°C ( 57°F) [RH = 64%]
Pressure (altimeter):29.65 inches Hg (1004.0 mb)
Winds:from the WSW (250 degrees) at 24 MPH (21 knots; 10.8 m/s)
Visibility:6 or more sm (10+ km)
Ceiling:at least 12,000 feet AGL
Clouds:sky clear below 12,000 feet AGL
Text:EKRN 301520Z AUTO 25022G32KT 9999 NCD 21/14 Q1004
Temperature: 21.0°C ( 70°F)
Dewpoint: 14.0°C ( 57°F) [RH = 64%]
Pressure (altimeter):29.65 inches Hg (1004.0 mb)
Winds:from the WSW (250 degrees) at 25 MPH (22 knots; 11.3 m/s) gusting to 37 MPH (32 knots; 16.5 m/s)
Visibility:6 or more sm (10+ km)
Ceiling:at least 12,000 feet AGL
Clouds:sky clear below 12,000 feet AGL
Text:EKRN 301450Z AUTO 25023G34KT 9999 FEW066/// 21/13 Q1004
Temperature: 21.0°C ( 70°F)
Dewpoint: 13.0°C ( 55°F) [RH = 60%]
Pressure (altimeter):29.65 inches Hg (1004.0 mb)
Winds:from the WSW (250 degrees) at 26 MPH (23 knots; 11.8 m/s) gusting to 39 MPH (34 knots; 17.5 m/s)
Visibility:6 or more sm (10+ km)
Ceiling:at least 12,000 feet AGL
Clouds: few clouds at 6600 feet AGL
Text:EKRN 301420Z AUTO 25023G34KT 9999 NCD 21/13 Q1004
Temperature: 21.0°C ( 70°F)
Dewpoint: 13.0°C ( 55°F) [RH = 60%]
Pressure (altimeter):29.65 inches Hg (1004.0 mb)
Winds:from the WSW (250 degrees) at 26 MPH (23 knots; 11.8 m/s) gusting to 39 MPH (34 knots; 17.5 m/s)
Visibility:6 or more sm (10+ km)
Ceiling:at least 12,000 feet AGL
Clouds:sky clear below 12,000 feet AGL
Text:EKRN 301350Z AUTO 24025G35KT 9999 NCD 21/13 Q1004
Temperature: 21.0°C ( 70°F)
Dewpoint: 13.0°C ( 55°F) [RH = 60%]
Pressure (altimeter):29.65 inches Hg (1004.0 mb)
Winds:from the WSW (240 degrees) at 29 MPH (25 knots; 12.9 m/s) gusting to 40 MPH (35 knots; 18.0 m/s)
Visibility:6 or more sm (10+ km)
Ceiling:at least 12,000 feet AGL
Clouds:sky clear below 12,000 feet AGL
Text:EKRN 301320Z AUTO 25025G35KT 9999 NCD 21/13 Q1004
Temperature: 21.0°C ( 70°F)
Dewpoint: 13.0°C ( 55°F) [RH = 60%]
Pressure (altimeter):29.65 inches Hg (1004.0 mb)
Winds:from the WSW (250 degrees) at 29 MPH (25 knots; 12.9 m/s) gusting to 40 MPH (35 knots; 18.0 m/s)
Visibility:6 or more sm (10+ km)
Ceiling:at least 12,000 feet AGL
Clouds:sky clear below 12,000 feet AGL
Text:EKRN 301250Z AUTO 25025KT 9999 NCD 21/13 Q1004
Temperature: 21.0°C ( 70°F)
Dewpoint: 13.0°C ( 55°F) [RH = 60%]
Pressure (altimeter):29.65 inches Hg (1004.0 mb)
Winds:from the WSW (250 degrees) at 29 MPH (25 knots; 12.9 m/s)
Visibility:6 or more sm (10+ km)
Ceiling:at least 12,000 feet AGL
Clouds:sky clear below 12,000 feet AGL
Text:EKRN 301220Z AUTO 25024KT 9999 BKN054/// 21/14 Q1004
Temperature: 21.0°C ( 70°F)
Dewpoint: 14.0°C ( 57°F) [RH = 64%]
Pressure (altimeter):29.65 inches Hg (1004.0 mb)
Winds:from the WSW (250 degrees) at 28 MPH (24 knots; 12.3 m/s)
Visibility:6 or more sm (10+ km)
Ceiling:5400 feet AGL
Clouds: broken clouds at 5400 feet AGL
Text:EKRN 301150Z AUTO 25023KT 9999 FEW025/// 20/14 Q1004
Temperature: 20.0°C ( 68°F)
Dewpoint: 14.0°C ( 57°F) [RH = 68%]
Pressure (altimeter):29.65 inches Hg (1004.0 mb)
Winds:from the WSW (250 degrees) at 26 MPH (23 knots; 11.8 m/s)
Visibility:6 or more sm (10+ km)
Ceiling:at least 12,000 feet AGL
Clouds: few clouds at 2500 feet AGL
Text:EKRN 301120Z AUTO 25024KT 9999 FEW024/// 20/14 Q1004
Temperature: 20.0°C ( 68°F)
Dewpoint: 14.0°C ( 57°F) [RH = 68%]
Pressure (altimeter):29.65 inches Hg (1004.0 mb)
Winds:from the WSW (250 degrees) at 28 MPH (24 knots; 12.3 m/s)
Visibility:6 or more sm (10+ km)
Ceiling:at least 12,000 feet AGL
Clouds: few clouds at 2400 feet AGL
Text:EKRN 301050Z AUTO 25023G33KT 9999 SCT022/// 20/14 Q1004
Temperature: 20.0°C ( 68°F)
Dewpoint: 14.0°C ( 57°F) [RH = 68%]
Pressure (altimeter):29.65 inches Hg (1004.0 mb)
Winds:from the WSW (250 degrees) at 26 MPH (23 knots; 11.8 m/s) gusting to 38 MPH (33 knots; 17.0 m/s)
Visibility:6 or more sm (10+ km)
Ceiling:at least 12,000 feet AGL
Clouds: scattered clouds at 2200 feet AGL
Text:EKRN 301020Z AUTO 25024KT 9999 SCT022/// 20/14 Q1004
Temperature: 20.0°C ( 68°F)
Dewpoint: 14.0°C ( 57°F) [RH = 68%]
Pressure (altimeter):29.65 inches Hg (1004.0 mb)
Winds:from the WSW (250 degrees) at 28 MPH (24 knots; 12.3 m/s)
Visibility:6 or more sm (10+ km)
Ceiling:at least 12,000 feet AGL
Clouds: scattered clouds at 2200 feet AGL
Text:EKRN 300950Z AUTO 25024KT 9999 BKN021/// 20/14 Q1004
Temperature: 20.0°C ( 68°F)
Dewpoint: 14.0°C ( 57°F) [RH = 68%]
Pressure (altimeter):29.65 inches Hg (1004.0 mb)
Winds:from the WSW (250 degrees) at 28 MPH (24 knots; 12.3 m/s)
Visibility:6 or more sm (10+ km)
Ceiling:2100 feet AGL
Clouds: broken clouds at 2100 feet AGL
Text:EKRN 300920Z AUTO 25025KT 9999 BKN021/// BKN041/// 19/14 Q1004
Temperature: 19.0°C ( 66°F)
Dewpoint: 14.0°C ( 57°F) [RH = 73%]
Pressure (altimeter):29.65 inches Hg (1004.0 mb)
Winds:from the WSW (250 degrees) at 29 MPH (25 knots; 12.9 m/s)
Visibility:6 or more sm (10+ km)
Ceiling:2100 feet AGL
Clouds: broken clouds at 2100 feet AGL, broken clouds at 4100 feet AGL
Text:EKRN 300850Z AUTO 24024KT 9999 FEW021/// BKN038/// 19/14 Q1004
Temperature: 19.0°C ( 66°F)
Dewpoint: 14.0°C ( 57°F) [RH = 73%]
Pressure (altimeter):29.65 inches Hg (1004.0 mb)
Winds:from the WSW (240 degrees) at 28 MPH (24 knots; 12.3 m/s)
Visibility:6 or more sm (10+ km)
Ceiling:3800 feet AGL
Clouds: few clouds at 2100 feet AGL, broken clouds at 3800 feet AGL
Text:EKRN 300820Z AUTO 24024KT 9999 BKN024/// 18/14 Q1004
Temperature: 18.0°C ( 64°F)
Dewpoint: 14.0°C ( 57°F) [RH = 77%]
Pressure (altimeter):29.65 inches Hg (1004.0 mb)
Winds:from the WSW (240 degrees) at 28 MPH (24 knots; 12.3 m/s)
Visibility:6 or more sm (10+ km)
Ceiling:2400 feet AGL
Clouds: broken clouds at 2400 feet AGL
Text:EKRN 300750Z AUTO 24025KT 9999 BKN022/// 19/14 Q1004
Temperature: 19.0°C ( 66°F)
Dewpoint: 14.0°C ( 57°F) [RH = 73%]
Pressure (altimeter):29.65 inches Hg (1004.0 mb)
Winds:from the WSW (240 degrees) at 29 MPH (25 knots; 12.9 m/s)
Visibility:6 or more sm (10+ km)
Ceiling:2200 feet AGL
Clouds: broken clouds at 2200 feet AGL
Text:EKRN 300720Z AUTO 24021KT 9999 BKN022/// 18/14 Q1004
Temperature: 18.0°C ( 64°F)
Dewpoint: 14.0°C ( 57°F) [RH = 77%]
Pressure (altimeter):29.65 inches Hg (1004.0 mb)
Winds:from the WSW (240 degrees) at 24 MPH (21 knots; 10.8 m/s)
Visibility:6 or more sm (10+ km)
Ceiling:2200 feet AGL
Clouds: broken clouds at 2200 feet AGL
Text:EKRN 300650Z AUTO 24023KT 9999 FEW030/// 18/14 Q1004
Temperature: 18.0°C ( 64°F)
Dewpoint: 14.0°C ( 57°F) [RH = 77%]
Pressure (altimeter):29.65 inches Hg (1004.0 mb)
Winds:from the WSW (240 degrees) at 26 MPH (23 knots; 11.8 m/s)
Visibility:6 or more sm (10+ km)
Ceiling:at least 12,000 feet AGL
Clouds: few clouds at 3000 feet AGL
Text:EKRN 300620Z AUTO 24022KT 9999 SCT019/// BKN075/// 18/14 Q1004
Temperature: 18.0°C ( 64°F)
Dewpoint: 14.0°C ( 57°F) [RH = 77%]
Pressure (altimeter):29.65 inches Hg (1004.0 mb)
Winds:from the WSW (240 degrees) at 25 MPH (22 knots; 11.3 m/s)
Visibility:6 or more sm (10+ km)
Ceiling:7500 feet AGL
Clouds: scattered clouds at 1900 feet AGL, broken clouds at 7500 feet AGL

TAF for:EKRN (Ronne/Bornholm Arpt, HO, DN) issued at 1116 UTC 31 Jul 2021
Text:TAF EKRN 311116Z 3112/3117 22015KT 9999 SCT025
Forecast period:1200 to 1700 UTC 31 July 2021
Forecast type:FROM: standard forecast or significant change
Winds:from the SW (220 degrees) at 17 MPH (15 knots; 7.7 m/s)
Visibility:6 or more sm (10+ km)
Ceiling:at least 12,000 feet AGL
Clouds: scattered clouds at 2500 feet AGL
Text:TEMPO 3112/3117 22018G28KT SCT020CB
Forecast period:1200 to 1700 UTC 31 July 2021
Forecast type:TEMPORARY: The following changes expected for less than half the time period
Winds:from the SW (220 degrees) at 21 MPH (18 knots; 9.3 m/s) gusting to 32 MPH (28 knots; 14.4 m/s)
Ceiling:at least 12,000 feet AGL
Clouds: scattered clouds at 2000 feet AGL